sensor_id;sensor_type;location;lat;lon;timestamp;pressure;altitude;pressure_sealevel;temperature;humidity
13869;BME280;7004;48.206;16.402;2023-10-08T00:00:46;99837.63;;;20.53;35.99
13869;BME280;7004;48.206;16.402;2023-10-08T00:03:16;99829.50;;;20.63;35.63
13869;BME280;7004;48.206;16.402;2023-10-08T00:05:43;99829.47;;;20.55;35.64
13869;BME280;7004;48.206;16.402;2023-10-08T00:08:12;99831.53;;;20.43;36.03
13869;BME280;7004;48.206;16.402;2023-10-08T00:10:40;99827.03;;;20.51;36.29
13869;BME280;7004;48.206;16.402;2023-10-08T00:13:11;99825.94;;;20.36;36.20
13869;BME280;7004;48.206;16.402;2023-10-08T00:15:39;99834.53;;;20.40;36.81
13869;BME280;7004;48.206;16.402;2023-10-08T00:18:22;99813.09;;;20.48;36.00
13869;BME280;7004;48.206;16.402;2023-10-08T00:20:52;99810.00;;;20.35;36.72
13869;BME280;7004;48.206;16.402;2023-10-08T00:23:23;99808.50;;;20.40;36.23
13869;BME280;7004;48.206;16.402;2023-10-08T00:25:54;99817.25;;;20.42;36.56
13869;BME280;7004;48.206;16.402;2023-10-08T00:28:22;99825.78;;;20.38;36.92
13869;BME280;7004;48.206;16.402;2023-10-08T00:30:48;99818.16;;;20.25;36.66
13869;BME280;7004;48.206;16.402;2023-10-08T00:33:15;99790.59;;;20.49;36.57
13869;BME280;7004;48.206;16.402;2023-10-08T00:35:42;99796.94;;;20.40;36.37
13869;BME280;7004;48.206;16.402;2023-10-08T00:38:09;99796.66;;;20.51;36.56
13869;BME280;7004;48.206;16.402;2023-10-08T00:40:41;99774.63;;;20.65;36.08
13869;BME280;7004;48.206;16.402;2023-10-08T00:43:31;99780.25;;;20.54;36.42
13869;BME280;7004;48.206;16.402;2023-10-08T00:46:05;99794.41;;;20.64;36.21
13869;BME280;7004;48.206;16.402;2023-10-08T00:48:36;99774.28;;;20.68;36.00
13869;BME280;7004;48.206;16.402;2023-10-08T00:51:03;99787.25;;;20.73;36.04
13869;BME280;7004;48.206;16.402;2023-10-08T00:54:00;99792.25;;;20.68;36.45
13869;BME280;7004;48.206;16.402;2023-10-08T00:56:33;99784.00;;;20.61;36.42
13869;BME280;7004;48.206;16.402;2023-10-08T00:59:19;99790.19;;;20.62;35.52
13869;BME280;7004;48.206;16.402;2023-10-08T01:01:52;99818.09;;;20.69;35.60
13869;BME280;7004;48.206;16.402;2023-10-08T01:04:26;99816.56;;;20.66;35.64
13869;BME280;7004;48.206;16.402;2023-10-08T01:06:57;99812.72;;;20.69;35.47
13869;BME280;7004;48.206;16.402;2023-10-08T01:09:30;99813.94;;;20.75;35.32
13869;BME280;7004;48.206;16.402;2023-10-08T01:12:15;99811.69;;;20.62;35.48
13869;BME280;7004;48.206;16.402;2023-10-08T01:14:50;99805.25;;;20.81;35.38
13869;BME280;7004;48.206;16.402;2023-10-08T01:17:21;99799.78;;;20.64;35.61
13869;BME280;7004;48.206;16.402;2023-10-08T01:19:53;99801.50;;;20.73;35.49
13869;BME280;7004;48.206;16.402;2023-10-08T01:22:37;99791.22;;;20.61;35.52
13869;BME280;7004;48.206;16.402;2023-10-08T01:25:05;99789.41;;;20.69;35.62
13869;BME280;7004;48.206;16.402;2023-10-08T01:27:32;99779.19;;;20.73;35.53
13869;BME280;7004;48.206;16.402;2023-10-08T01:30:01;99771.41;;;20.62;35.46
13869;BME280;7004;48.206;16.402;2023-10-08T01:32:41;99789.88;;;20.65;36.11
13869;BME280;7004;48.206;16.402;2023-10-08T01:35:09;99788.53;;;20.61;35.86
13869;BME280;7004;48.206;16.402;2023-10-08T01:37:52;99784.25;;;20.50;36.36
13869;BME280;7004;48.206;16.402;2023-10-08T01:40:19;99787.03;;;20.66;36.07
13869;BME280;7004;48.206;16.402;2023-10-08T01:42:45;99781.16;;;20.63;36.29
13869;BME280;7004;48.206;16.402;2023-10-08T01:45:12;99783.50;;;20.66;36.19
13869;BME280;7004;48.206;16.402;2023-10-08T01:47:44;99792.38;;;20.58;36.09
13869;BME280;7004;48.206;16.402;2023-10-08T01:50:10;99791.03;;;20.62;35.83
13869;BME280;7004;48.206;16.402;2023-10-08T01:52:51;99789.84;;;20.57;36.11
13869;BME280;7004;48.206;16.402;2023-10-08T01:55:17;99797.13;;;20.72;35.59
13869;BME280;7004;48.206;16.402;2023-10-08T01:57:46;99793.91;;;20.61;35.79
13869;BME280;7004;48.206;16.402;2023-10-08T02:00:15;99800.25;;;20.60;36.15
13869;BME280;7004;48.206;16.402;2023-10-08T02:02:51;99789.75;;;20.75;35.50
13869;BME280;7004;48.206;16.402;2023-10-08T02:05:20;99792.44;;;20.75;36.01
13869;BME280;7004;48.206;16.402;2023-10-08T02:07:49;99790.91;;;20.72;35.64
13869;BME280;7004;48.206;16.402;2023-10-08T02:10:17;99788.66;;;20.59;35.64
13869;BME280;7004;48.206;16.402;2023-10-08T02:12:43;99786.00;;;20.59;35.61
13869;BME280;7004;48.206;16.402;2023-10-08T02:15:11;99787.69;;;20.34;35.90
13869;BME280;7004;48.206;16.402;2023-10-08T02:17:37;99788.88;;;20.40;35.96
13869;BME280;7004;48.206;16.402;2023-10-08T02:20:07;99798.28;;;20.44;36.16
13869;BME280;7004;48.206;16.402;2023-10-08T02:22:34;99790.56;;;20.41;36.01
13869;BME280;7004;48.206;16.402;2023-10-08T02:25:02;99803.72;;;20.52;36.22
13869;BME280;7004;48.206;16.402;2023-10-08T02:27:30;99800.19;;;20.25;36.13
13869;BME280;7004;48.206;16.402;2023-10-08T02:29:59;99793.69;;;20.54;36.18
13869;BME280;7004;48.206;16.402;2023-10-08T02:32:26;99800.00;;;20.45;36.55
13869;BME280;7004;48.206;16.402;2023-10-08T02:34:53;99792.31;;;20.50;36.47
13869;BME280;7004;48.206;16.402;2023-10-08T02:37:19;99786.53;;;20.37;36.63
13869;BME280;7004;48.206;16.402;2023-10-08T02:39:45;99789.03;;;20.38;36.43
13869;BME280;7004;48.206;16.402;2023-10-08T02:42:13;99789.63;;;20.24;36.92
13869;BME280;7004;48.206;16.402;2023-10-08T02:44:40;99792.31;;;20.24;37.00
13869;BME280;7004;48.206;16.402;2023-10-08T02:47:12;99792.13;;;20.25;36.89
13869;BME280;7004;48.206;16.402;2023-10-08T02:49:50;99791.09;;;20.44;36.93
13869;BME280;7004;48.206;16.402;2023-10-08T02:52:19;99779.72;;;20.24;37.46
13869;BME280;7004;48.206;16.402;2023-10-08T02:54:46;99790.19;;;20.36;37.61
13869;BME280;7004;48.206;16.402;2023-10-08T02:57:12;99775.16;;;20.17;37.45
13869;BME280;7004;48.206;16.402;2023-10-08T02:59:40;99777.56;;;20.28;37.84
13869;BME280;7004;48.206;16.402;2023-10-08T03:02:09;99780.16;;;20.12;38.39
13869;BME280;7004;48.206;16.402;2023-10-08T03:05:01;99785.44;;;20.21;37.94
13869;BME280;7004;48.206;16.402;2023-10-08T03:07:29;99792.00;;;20.27;38.17
13869;BME280;7004;48.206;16.402;2023-10-08T03:09:58;99777.06;;;20.24;38.47
13869;BME280;7004;48.206;16.402;2023-10-08T03:12:46;99780.06;;;20.21;38.25
13869;BME280;7004;48.206;16.402;2023-10-08T03:15:15;99778.72;;;20.25;38.32
13869;BME280;7004;48.206;16.402;2023-10-08T03:18:05;99774.72;;;20.03;39.15
13869;BME280;7004;48.206;16.402;2023-10-08T03:20:41;99776.88;;;20.26;38.72
13869;BME280;7004;48.206;16.402;2023-10-08T03:23:13;99779.88;;;20.23;38.82
13869;BME280;7004;48.206;16.402;2023-10-08T03:26:00;99770.44;;;20.11;39.11
13869;BME280;7004;48.206;16.402;2023-10-08T03:28:29;99787.03;;;20.14;39.09
13869;BME280;7004;48.206;16.402;2023-10-08T03:30:59;99784.31;;;20.32;38.92
13869;BME280;7004;48.206;16.402;2023-10-08T03:33:45;99792.78;;;20.19;39.04
13869;BME280;7004;48.206;16.402;2023-10-08T03:36:17;99785.66;;;20.10;39.71
13869;BME280;7004;48.206;16.402;2023-10-08T03:38:50;99774.56;;;20.31;39.06
13869;BME280;7004;48.206;16.402;2023-10-08T03:41:24;99787.03;;;20.14;39.63
13869;BME280;7004;48.206;16.402;2023-10-08T03:43:57;99783.56;;;20.22;39.62
13869;BME280;7004;48.206;16.402;2023-10-08T03:46:39;99779.00;;;20.14;39.92
13869;BME280;7004;48.206;16.402;2023-10-08T03:49:09;99786.09;;;20.23;39.76
13869;BME280;7004;48.206;16.402;2023-10-08T03:51:48;99788.25;;;20.20;40.00
13869;BME280;7004;48.206;16.402;2023-10-08T03:54:18;99786.03;;;20.15;39.80
13869;BME280;7004;48.206;16.402;2023-10-08T03:56:46;99787.94;;;20.23;39.87
13869;BME280;7004;48.206;16.402;2023-10-08T03:59:18;99798.78;;;20.39;39.43
13869;BME280;7004;48.206;16.402;2023-10-08T04:01:58;99801.91;;;20.26;40.13
13869;BME280;7004;48.206;16.402;2023-10-08T04:04:36;99792.88;;;20.10;40.07
13869;BME280;7004;48.206;16.402;2023-10-08T04:07:25;99811.47;;;20.29;39.66
13869;BME280;7004;48.206;16.402;2023-10-08T04:10:04;99801.66;;;20.20;40.46
13869;BME280;7004;48.206;16.402;2023-10-08T04:12:37;99807.47;;;20.33;40.09
13869;BME280;7004;48.206;16.402;2023-10-08T04:15:10;99794.50;;;20.02;40.63
13869;BME280;7004;48.206;16.402;2023-10-08T04:17:40;99790.19;;;20.10;40.40
13869;BME280;7004;48.206;16.402;2023-10-08T04:20:12;99782.38;;;20.16;40.30
13869;BME280;7004;48.206;16.402;2023-10-08T04:22:57;99784.59;;;20.21;40.33
13869;BME280;7004;48.206;16.402;2023-10-08T04:25:29;99770.84;;;19.98;40.50
13869;BME280;7004;48.206;16.402;2023-10-08T04:27:59;99758.41;;;19.97;40.95
13869;BME280;7004;48.206;16.402;2023-10-08T04:30:27;99766.41;;;20.15;40.17
13869;BME280;7004;48.206;16.402;2023-10-08T04:33:04;99778.09;;;20.05;40.69
13869;BME280;7004;48.206;16.402;2023-10-08T04:35:44;99777.03;;;19.98;40.95
13869;BME280;7004;48.206;16.402;2023-10-08T04:38:24;99773.53;;;19.98;40.42
13869;BME280;7004;48.206;16.402;2023-10-08T04:40:55;99774.69;;;19.95;40.86
13869;BME280;7004;48.206;16.402;2023-10-08T04:43:27;99759.41;;;19.96;40.88
13869;BME280;7004;48.206;16.402;2023-10-08T04:46:02;99757.25;;;19.99;40.92
13869;BME280;7004;48.206;16.402;2023-10-08T04:48:46;99752.56;;;20.01;40.95
13869;BME280;7004;48.206;16.402;2023-10-08T04:51:12;99757.56;;;19.96;40.93
13869;BME280;7004;48.206;16.402;2023-10-08T04:53:39;99752.31;;;20.13;41.02
13869;BME280;7004;48.206;16.402;2023-10-08T04:56:12;99751.41;;;19.78;42.03
13869;BME280;7004;48.206;16.402;2023-10-08T04:58:47;99761.56;;;19.92;41.39
13869;BME280;7004;48.206;16.402;2023-10-08T05:01:15;99768.72;;;19.83;41.85
13869;BME280;7004;48.206;16.402;2023-10-08T05:03:48;99769.13;;;19.97;41.32
13869;BME280;7004;48.206;16.402;2023-10-08T05:06:32;99769.31;;;19.95;41.83
13869;BME280;7004;48.206;16.402;2023-10-08T05:09:02;99772.00;;;19.95;41.92
13869;BME280;7004;48.206;16.402;2023-10-08T05:11:39;99785.16;;;20.06;41.85
13869;BME280;7004;48.206;16.402;2023-10-08T05:14:15;99787.94;;;19.79;42.65
13869;BME280;7004;48.206;16.402;2023-10-08T05:16:58;99788.50;;;19.82;42.40
13869;BME280;7004;48.206;16.402;2023-10-08T05:19:41;99787.38;;;20.11;42.01
13869;BME280;7004;48.206;16.402;2023-10-08T05:22:12;99794.34;;;20.04;42.09
13869;BME280;7004;48.206;16.402;2023-10-08T05:24:48;99792.53;;;19.86;42.47
13869;BME280;7004;48.206;16.402;2023-10-08T05:27:39;99795.03;;;20.06;42.46
13869;BME280;7004;48.206;16.402;2023-10-08T05:30:27;99796.72;;;20.07;42.53
13869;BME280;7004;48.206;16.402;2023-10-08T05:33:04;99808.84;;;20.11;42.61
13869;BME280;7004;48.206;16.402;2023-10-08T05:35:50;99795.97;;;20.23;42.30
13869;BME280;7004;48.206;16.402;2023-10-08T05:38:21;99802.47;;;20.12;42.68
13869;BME280;7004;48.206;16.402;2023-10-08T05:41:08;99809.91;;;20.18;42.83
13869;BME280;7004;48.206;16.402;2023-10-08T05:43:54;99812.25;;;19.95;43.06
13869;BME280;7004;48.206;16.402;2023-10-08T05:46:41;99831.72;;;20.23;42.58
13869;BME280;7004;48.206;16.402;2023-10-08T05:49:17;99812.31;;;20.29;42.66
13869;BME280;7004;48.206;16.402;2023-10-08T05:52:04;99821.47;;;20.19;42.58
13869;BME280;7004;48.206;16.402;2023-10-08T05:54:32;99821.25;;;20.12;42.79
13869;BME280;7004;48.206;16.402;2023-10-08T05:57:07;99815.50;;;20.07;43.70
13869;BME280;7004;48.206;16.402;2023-10-08T05:59:50;99818.03;;;20.08;43.29
13869;BME280;7004;48.206;16.402;2023-10-08T06:02:31;99809.16;;;20.08;42.98
13869;BME280;7004;48.206;16.402;2023-10-08T06:05:05;99815.97;;;20.02;43.20
13869;BME280;7004;48.206;16.402;2023-10-08T06:07:45;99824.03;;;20.28;42.61
13869;BME280;7004;48.206;16.402;2023-10-08T06:10:29;99827.94;;;20.08;43.25
13869;BME280;7004;48.206;16.402;2023-10-08T06:15:49;99831.97;;;20.12;43.67
13869;BME280;7004;48.206;16.402;2023-10-08T06:18:30;99836.38;;;20.13;43.33
13869;BME280;7004;48.206;16.402;2023-10-08T06:21:03;99844.84;;;20.26;43.00
13869;BME280;7004;48.206;16.402;2023-10-08T06:23:40;99858.91;;;20.28;43.29
13869;BME280;7004;48.206;16.402;2023-10-08T06:26:08;99861.09;;;20.25;43.69
13869;BME280;7004;48.206;16.402;2023-10-08T06:28:39;99863.50;;;20.36;44.21
13869;BME280;7004;48.206;16.402;2023-10-08T06:31:06;99867.16;;;20.27;44.41
13869;BME280;7004;48.206;16.402;2023-10-08T06:33:39;99859.38;;;20.42;43.30
13869;BME280;7004;48.206;16.402;2023-10-08T06:36:06;99863.50;;;20.54;43.20
13869;BME280;7004;48.206;16.402;2023-10-08T06:38:40;99863.41;;;20.46;43.80
13869;BME280;7004;48.206;16.402;2023-10-08T06:41:12;99859.69;;;20.65;42.90
13869;BME280;7004;48.206;16.402;2023-10-08T06:43:39;99862.38;;;20.91;42.33
13869;BME280;7004;48.206;16.402;2023-10-08T06:46:09;99860.91;;;20.97;42.62
13869;BME280;7004;48.206;16.402;2023-10-08T06:48:39;99876.06;;;21.14;42.26
13869;BME280;7004;48.206;16.402;2023-10-08T06:51:09;99886.66;;;20.81;42.58
13869;BME280;7004;48.206;16.402;2023-10-08T06:53:46;99890.56;;;20.87;42.80
13869;BME280;7004;48.206;16.402;2023-10-08T06:56:17;99894.69;;;21.07;42.28
13869;BME280;7004;48.206;16.402;2023-10-08T06:58:46;99898.88;;;21.02;42.44
13869;BME280;7004;48.206;16.402;2023-10-08T07:01:16;99907.09;;;20.74;42.64
13869;BME280;7004;48.206;16.402;2023-10-08T07:03:57;99899.34;;;20.97;42.17
13869;BME280;7004;48.206;16.402;2023-10-08T07:06:29;99899.69;;;20.68;42.42
13869;BME280;7004;48.206;16.402;2023-10-08T07:09:01;99891.81;;;20.75;42.48
13869;BME280;7004;48.206;16.402;2023-10-08T07:11:34;99897.44;;;21.24;41.74
13869;BME280;7004;48.206;16.402;2023-10-08T07:14:05;99896.97;;;21.79;40.96
13869;BME280;7004;48.206;16.402;2023-10-08T07:16:31;99887.75;;;22.63;39.87
13869;BME280;7004;48.206;16.402;2023-10-08T07:18:58;99874.31;;;22.31;39.59
13869;BME280;7004;48.206;16.402;2023-10-08T07:21:29;99875.06;;;23.36;38.62
13869;BME280;7004;48.206;16.402;2023-10-08T07:24:05;99879.97;;;23.95;37.38
13869;BME280;7004;48.206;16.402;2023-10-08T07:26:41;99879.63;;;23.36;38.63
13869;BME280;7004;48.206;16.402;2023-10-08T07:29:14;99879.41;;;23.06;38.40
13869;BME280;7004;48.206;16.402;2023-10-08T07:31:44;99868.03;;;23.58;37.51
13869;BME280;7004;48.206;16.402;2023-10-08T07:34:18;99874.03;;;22.98;38.83
13869;BME280;7004;48.206;16.402;2023-10-08T07:36:54;99885.28;;;23.09;38.91
13869;BME280;7004;48.206;16.402;2023-10-08T07:39:22;99872.72;;;22.77;39.07
13869;BME280;7004;48.206;16.402;2023-10-08T07:41:55;99867.06;;;22.56;39.30
13869;BME280;7004;48.206;16.402;2023-10-08T07:44:22;99882.09;;;23.14;38.23
13869;BME280;7004;48.206;16.402;2023-10-08T07:46:53;99898.66;;;22.78;39.40
13869;BME280;7004;48.206;16.402;2023-10-08T07:49:25;99899.31;;;22.88;39.10
13869;BME280;7004;48.206;16.402;2023-10-08T07:51:55;99904.19;;;23.01;39.64
13869;BME280;7004;48.206;16.402;2023-10-08T07:54:23;99923.94;;;22.12;41.31
13869;BME280;7004;48.206;16.402;2023-10-08T07:56:50;99937.31;;;21.71;41.64
13869;BME280;7004;48.206;16.402;2023-10-08T07:59:39;99955.25;;;21.54;42.31
13869;BME280;7004;48.206;16.402;2023-10-08T08:02:28;99947.63;;;21.41;42.75
13869;BME280;7004;48.206;16.402;2023-10-08T08:04:54;99946.84;;;21.57;43.01
13869;BME280;7004;48.206;16.402;2023-10-08T08:07:21;99951.09;;;21.33;43.30
13869;BME280;7004;48.206;16.402;2023-10-08T08:09:51;99954.53;;;21.44;43.45
13869;BME280;7004;48.206;16.402;2023-10-08T08:12:19;99961.63;;;21.27;43.12
13869;BME280;7004;48.206;16.402;2023-10-08T08:14:47;99970.00;;;21.15;43.42
13869;BME280;7004;48.206;16.402;2023-10-08T08:17:18;99969.34;;;21.22;43.78
13869;BME280;7004;48.206;16.402;2023-10-08T08:19:50;99968.19;;;21.24;43.39
13869;BME280;7004;48.206;16.402;2023-10-08T08:22:18;99979.94;;;21.49;43.95
13869;BME280;7004;48.206;16.402;2023-10-08T08:24:52;99974.88;;;21.46;43.92
13869;BME280;7004;48.206;16.402;2023-10-08T08:27:28;99967.94;;;21.09;44.64
13869;BME280;7004;48.206;16.402;2023-10-08T08:29:58;99972.91;;;21.56;44.08
13869;BME280;7004;48.206;16.402;2023-10-08T08:32:39;99967.16;;;21.43;44.19
13869;BME280;7004;48.206;16.402;2023-10-08T08:35:08;99979.03;;;21.75;44.45
13869;BME280;7004;48.206;16.402;2023-10-08T08:37:35;99974.00;;;21.11;45.25
13869;BME280;7004;48.206;16.402;2023-10-08T08:40:08;99977.56;;;21.46;45.88
13869;BME280;7004;48.206;16.402;2023-10-08T08:42:51;99983.22;;;21.69;45.55
13869;BME280;7004;48.206;16.402;2023-10-08T08:45:24;99987.91;;;21.33;46.10
13869;BME280;7004;48.206;16.402;2023-10-08T08:47:51;99995.97;;;21.33;46.71
13869;BME280;7004;48.206;16.402;2023-10-08T08:50:20;100000.88;;;21.11;47.16
13869;BME280;7004;48.206;16.402;2023-10-08T08:52:47;100011.31;;;21.14;48.55
13869;BME280;7004;48.206;16.402;2023-10-08T08:55:13;100010.34;;;21.24;49.66
13869;BME280;7004;48.206;16.402;2023-10-08T08:57:47;100018.47;;;21.32;51.01
13869;BME280;7004;48.206;16.402;2023-10-08T09:00:16;100026.44;;;21.15;51.80
13869;BME280;7004;48.206;16.402;2023-10-08T09:02:45;100062.44;;;20.97;53.71
13869;BME280;7004;48.206;16.402;2023-10-08T09:05:13;100079.34;;;20.25;57.29
13869;BME280;7004;48.206;16.402;2023-10-08T09:08:03;100092.44;;;20.11;59.22
13869;BME280;7004;48.206;16.402;2023-10-08T09:10:32;100097.81;;;19.63;60.34
13869;BME280;7004;48.206;16.402;2023-10-08T09:13:08;100124.00;;;19.42;61.35
13869;BME280;7004;48.206;16.402;2023-10-08T09:15:37;100118.41;;;19.82;60.47
13869;BME280;7004;48.206;16.402;2023-10-08T09:18:04;100144.13;;;19.56;61.52
13869;BME280;7004;48.206;16.402;2023-10-08T09:20:30;100149.56;;;19.17;62.09
13869;BME280;7004;48.206;16.402;2023-10-08T09:25:42;100163.19;;;19.53;60.62
13869;BME280;7004;48.206;16.402;2023-10-08T09:28:09;100178.63;;;19.31;60.45
13869;BME280;7004;48.206;16.402;2023-10-08T09:30:39;100171.75;;;18.49;62.47
13869;BME280;7004;48.206;16.402;2023-10-08T09:33:09;100185.38;;;19.06;60.90
13869;BME280;7004;48.206;16.402;2023-10-08T09:35:36;100190.91;;;18.45;62.44
13869;BME280;7004;48.206;16.402;2023-10-08T09:38:04;100187.56;;;18.72;61.76
13869;BME280;7004;48.206;16.402;2023-10-08T09:40:31;100206.75;;;18.27;63.15
13869;BME280;7004;48.206;16.402;2023-10-08T09:42:59;100211.66;;;18.62;61.86
13869;BME280;7004;48.206;16.402;2023-10-08T09:45:26;100211.13;;;18.28;63.35
13869;BME280;7004;48.206;16.402;2023-10-08T09:47:55;100215.41;;;18.09;63.81
13869;BME280;7004;48.206;16.402;2023-10-08T09:50:29;100227.50;;;18.44;62.95
13869;BME280;7004;48.206;16.402;2023-10-08T09:53:12;100242.38;;;17.97;64.76
13869;BME280;7004;48.206;16.402;2023-10-08T09:55:55;100236.38;;;18.04;63.19
13869;BME280;7004;48.206;16.402;2023-10-08T09:58:23;100252.31;;;17.85;64.09
13869;BME280;7004;48.206;16.402;2023-10-08T10:00:51;100254.78;;;18.28;62.69
13869;BME280;7004;48.206;16.402;2023-10-08T10:03:18;100276.84;;;17.90;63.90
13869;BME280;7004;48.206;16.402;2023-10-08T10:05:49;100269.84;;;17.66;64.81
13869;BME280;7004;48.206;16.402;2023-10-08T10:08:19;100284.81;;;17.37;65.43
13869;BME280;7004;48.206;16.402;2023-10-08T10:10:58;100287.91;;;17.53;64.87
13869;BME280;7004;48.206;16.402;2023-10-08T10:13:28;100295.56;;;17.25;65.30
13869;BME280;7004;48.206;16.402;2023-10-08T10:15:56;100293.09;;;17.34;64.57
13869;BME280;7004;48.206;16.402;2023-10-08T10:20:57;100303.59;;;17.79;63.00
13869;BME280;7004;48.206;16.402;2023-10-08T10:23:41;100303.91;;;17.97;62.00
13869;BME280;7004;48.206;16.402;2023-10-08T10:26:34;100321.50;;;17.35;64.32
13869;BME280;7004;48.206;16.402;2023-10-08T10:31:52;100324.44;;;17.96;62.35
13869;BME280;7004;48.206;16.402;2023-10-08T10:34:27;100337.06;;;17.30;64.42
13869;BME280;7004;48.206;16.402;2023-10-08T10:36:59;100328.34;;;17.60;64.18
13869;BME280;7004;48.206;16.402;2023-10-08T10:39:29;100338.53;;;17.22;66.64
13869;BME280;7004;48.206;16.402;2023-10-08T10:42:00;100346.28;;;17.69;65.30
13869;BME280;7004;48.206;16.402;2023-10-08T10:44:33;100349.44;;;17.42;66.35
13869;BME280;7004;48.206;16.402;2023-10-08T10:47:03;100364.53;;;17.09;67.70
13869;BME280;7004;48.206;16.402;2023-10-08T10:49:42;100370.44;;;17.35;66.86
13869;BME280;7004;48.206;16.402;2023-10-08T10:52:28;100374.63;;;16.72;67.45
13869;BME280;7004;48.206;16.402;2023-10-08T10:55:08;100386.66;;;16.77;68.22
13869;BME280;7004;48.206;16.402;2023-10-08T10:57:57;100384.72;;;16.68;68.18
13869;BME280;7004;48.206;16.402;2023-10-08T11:00:31;100369.88;;;17.09;67.48
13869;BME280;7004;48.206;16.402;2023-10-08T11:03:02;100389.16;;;16.56;69.59
13869;BME280;7004;48.206;16.402;2023-10-08T11:05:37;100402.59;;;16.32;70.70
13869;BME280;7004;48.206;16.402;2023-10-08T11:08:06;100415.81;;;15.99;71.50
13869;BME280;7004;48.206;16.402;2023-10-08T11:10:37;100427.09;;;16.02;71.24
13869;BME280;7004;48.206;16.402;2023-10-08T11:13:08;100431.47;;;15.79;70.93
13869;BME280;7004;48.206;16.402;2023-10-08T11:15:45;100443.34;;;15.62;72.37
13869;BME280;7004;48.206;16.402;2023-10-08T11:18:18;100426.47;;;15.75;71.97
13869;BME280;7004;48.206;16.402;2023-10-08T11:20:46;100438.97;;;15.61;72.27
13869;BME280;7004;48.206;16.402;2023-10-08T11:23:46;100436.72;;;16.16;70.35
13869;BME280;7004;48.206;16.402;2023-10-08T11:26:19;100433.75;;;15.97;70.59
13869;BME280;7004;48.206;16.402;2023-10-08T11:28:47;100430.38;;;15.21;73.73
13869;BME280;7004;48.206;16.402;2023-10-08T11:31:17;100420.59;;;15.45;73.93
13869;BME280;7004;48.206;16.402;2023-10-08T11:33:47;100423.44;;;15.55;74.72
13869;BME280;7004;48.206;16.402;2023-10-08T11:36:23;100437.72;;;15.91;74.11
13869;BME280;7004;48.206;16.402;2023-10-08T11:39:10;100454.81;;;14.76;78.46
13869;BME280;7004;48.206;16.402;2023-10-08T11:41:37;100459.22;;;15.14;78.48
13869;BME280;7004;48.206;16.402;2023-10-08T11:44:21;100462.97;;;14.86;80.50
13869;BME280;7004;48.206;16.402;2023-10-08T11:46:49;100459.56;;;15.10;79.73
13869;BME280;7004;48.206;16.402;2023-10-08T11:49:19;100464.38;;;14.79;82.38
13869;BME280;7004;48.206;16.402;2023-10-08T11:51:46;100462.03;;;14.74;81.95
13869;BME280;7004;48.206;16.402;2023-10-08T11:54:12;100466.59;;;14.59;83.57
13869;BME280;7004;48.206;16.402;2023-10-08T11:56:40;100469.34;;;14.83;84.95
13869;BME280;7004;48.206;16.402;2023-10-08T11:59:07;100473.84;;;14.30;87.20
13869;BME280;7004;48.206;16.402;2023-10-08T12:01:38;100476.72;;;14.80;85.73
13869;BME280;7004;48.206;16.402;2023-10-08T12:04:09;100479.28;;;14.94;83.93
13869;BME280;7004;48.206;16.402;2023-10-08T12:06:41;100473.56;;;14.35;84.83
13869;BME280;7004;48.206;16.402;2023-10-08T12:09:18;100474.25;;;14.64;82.27
13869;BME280;7004;48.206;16.402;2023-10-08T12:11:48;100481.16;;;14.54;81.53
13869;BME280;7004;48.206;16.402;2023-10-08T12:14:15;100485.13;;;14.74;82.19
13869;BME280;7004;48.206;16.402;2023-10-08T12:16:41;100488.44;;;14.77;80.82
13869;BME280;7004;48.206;16.402;2023-10-08T12:19:09;100490.22;;;14.37;79.49
13869;BME280;7004;48.206;16.402;2023-10-08T12:21:45;100500.38;;;14.05;79.59
13869;BME280;7004;48.206;16.402;2023-10-08T12:24:13;100507.75;;;14.27;77.83
13869;BME280;7004;48.206;16.402;2023-10-08T12:26:40;100507.38;;;14.33;79.90
13869;BME280;7004;48.206;16.402;2023-10-08T12:29:13;100511.09;;;14.30;80.01
13869;BME280;7004;48.206;16.402;2023-10-08T12:31:47;100509.75;;;14.50;79.15
13869;BME280;7004;48.206;16.402;2023-10-08T12:34:14;100508.56;;;13.87;82.69
13869;BME280;7004;48.206;16.402;2023-10-08T12:36:41;100509.09;;;14.74;80.99
13869;BME280;7004;48.206;16.402;2023-10-08T12:39:08;100519.63;;;13.67;84.63
13869;BME280;7004;48.206;16.402;2023-10-08T12:41:44;100514.34;;;13.94;83.93
13869;BME280;7004;48.206;16.402;2023-10-08T12:44:13;100507.41;;;14.46;80.68
13869;BME280;7004;48.206;16.402;2023-10-08T12:46:41;100513.13;;;14.67;80.92
13869;BME280;7004;48.206;16.402;2023-10-08T12:49:10;100502.09;;;14.46;81.25
13869;BME280;7004;48.206;16.402;2023-10-08T12:51:36;100508.34;;;13.77;85.63
13869;BME280;7004;48.206;16.402;2023-10-08T12:54:07;100514.63;;;14.43;83.06
13869;BME280;7004;48.206;16.402;2023-10-08T12:56:37;100507.16;;;14.36;83.57
13869;BME280;7004;48.206;16.402;2023-10-08T12:59:15;100508.91;;;13.68;82.92
13869;BME280;7004;48.206;16.402;2023-10-08T13:01:50;100511.84;;;14.32;81.36
13869;BME280;7004;48.206;16.402;2023-10-08T13:04:23;100501.81;;;14.63;81.38
13869;BME280;7004;48.206;16.402;2023-10-08T13:07:01;100511.69;;;14.21;82.04
13869;BME280;7004;48.206;16.402;2023-10-08T13:09:30;100515.44;;;14.31;81.76
13869;BME280;7004;48.206;16.402;2023-10-08T13:12:04;100512.66;;;14.20;80.48
13869;BME280;7004;48.206;16.402;2023-10-08T13:14:31;100521.47;;;14.20;80.75
13869;BME280;7004;48.206;16.402;2023-10-08T13:17:01;100518.84;;;14.33;78.88
13869;BME280;7004;48.206;16.402;2023-10-08T13:19:28;100516.41;;;14.70;76.84
13869;BME280;7004;48.206;16.402;2023-10-08T13:21:57;100514.09;;;14.38;77.29
13869;BME280;7004;48.206;16.402;2023-10-08T13:24:25;100517.38;;;14.42;77.29
13869;BME280;7004;48.206;16.402;2023-10-08T13:26:54;100524.28;;;14.59;78.67
13869;BME280;7004;48.206;16.402;2023-10-08T13:29:21;100527.59;;;14.08;76.02
13869;BME280;7004;48.206;16.402;2023-10-08T13:31:48;100528.34;;;14.10;74.58
13869;BME280;7004;48.206;16.402;2023-10-08T13:34:14;100532.63;;;14.40;75.15
13869;BME280;7004;48.206;16.402;2023-10-08T13:36:42;100529.75;;;14.96;72.38